createdAt,value
2023-02-15T00:00:39.705Z,47.30
2023-02-15T00:03:09.742Z,47.03
2023-02-15T00:05:40.454Z,55.10
2023-02-15T00:08:11.642Z,45.57
2023-02-15T00:10:41.736Z,48.33
2023-02-15T00:13:11.582Z,59.87
2023-02-15T00:15:41.836Z,48.15
2023-02-15T00:18:11.655Z,53.77
2023-02-15T00:20:41.451Z,48.50
2023-02-15T00:23:11.545Z,56.80
2023-02-15T00:25:41.647Z,47.73
2023-02-15T00:28:13.525Z,49.00
2023-02-15T00:30:43.032Z,43.80
2023-02-15T00:33:14.773Z,49.80
2023-02-15T00:35:44.326Z,49.35
2023-02-15T00:38:15.062Z,51.15
2023-02-15T00:40:44.910Z,48.70
2023-02-15T00:43:14.680Z,61.40
2023-02-15T00:45:46.570Z,54.17
2023-02-15T00:48:16.458Z,52.90
2023-02-15T00:50:54.118Z,53.93
2023-02-15T00:53:24.513Z,52.93
2023-02-15T00:55:55.508Z,58.30
2023-02-15T00:58:25.405Z,51.08
2023-02-15T01:00:55.874Z,51.50
2023-02-15T01:03:26.533Z,57.78
2023-02-15T01:05:56.374Z,55.77
2023-02-15T01:08:26.183Z,51.43
2023-02-15T01:10:56.083Z,49.23
2023-02-15T01:13:27.215Z,58.17
2023-02-15T01:15:57.758Z,58.08
2023-02-15T01:18:30.750Z,55.08
2023-02-15T01:21:02.383Z,53.63
2023-02-15T01:23:32.222Z,55.03
2023-02-15T01:26:04.362Z,52.83
2023-02-15T01:28:35.982Z,56.90
2023-02-15T01:31:11.446Z,50.53
2023-02-15T01:33:41.591Z,53.30
2023-02-15T01:36:13.546Z,49.83
2023-02-15T01:38:43.383Z,54.30
2023-02-15T01:41:24.479Z,48.27
2023-02-15T01:44:00.832Z,49.20
2023-02-15T01:46:39.695Z,48.05
2023-02-15T01:49:21.608Z,51.40
2023-02-15T01:51:53.783Z,51.97
2023-02-15T01:54:30.916Z,50.10
2023-02-15T01:57:06.825Z,50.35
2023-02-15T01:59:39.879Z,56.77
2023-02-15T02:02:13.810Z,48.37
2023-02-15T02:04:52.022Z,50.57
2023-02-15T02:07:27.753Z,44.23
2023-02-15T02:09:57.641Z,52.35
2023-02-15T02:12:28.006Z,49.90
2023-02-15T02:14:58.712Z,55.55
2023-02-15T02:17:37.693Z,52.73
2023-02-15T02:20:21.206Z,50.33
2023-02-15T02:23:21.076Z,55.87
2023-02-15T02:25:57.795Z,49.10
2023-02-15T02:28:54.524Z,55.03
2023-02-15T02:31:43.361Z,46.40
2023-02-15T02:34:21.043Z,50.08
2023-02-15T02:36:56.890Z,49.93
2023-02-15T02:39:47.730Z,55.10
2023-02-15T02:42:23.553Z,53.97
2023-02-15T02:45:12.720Z,50.48
2023-02-15T02:47:45.722Z,45.87
2023-02-15T02:50:20.543Z,50.26
2023-02-15T02:52:53.056Z,48.55
2023-02-15T02:55:43.754Z,53.35
2023-02-15T02:58:27.312Z,48.05
2023-02-15T03:01:14.313Z,54.00
2023-02-15T03:03:50.759Z,51.80
2023-02-15T03:06:27.442Z,50.95
2023-02-15T03:09:06.360Z,53.83
2023-02-15T03:11:37.069Z,52.67
2023-02-15T03:14:08.158Z,48.87
2023-02-15T03:16:40.060Z,54.10
2023-02-15T03:19:16.049Z,51.40
2023-02-15T03:21:53.652Z,54.57
2023-02-15T03:24:38.433Z,52.60
2023-02-15T03:27:11.593Z,47.70
2023-02-15T03:29:42.034Z,50.27
2023-02-15T03:32:16.367Z,53.33
2023-02-15T03:34:47.015Z,51.23
2023-02-15T03:37:27.953Z,52.73
2023-02-15T03:40:27.284Z,53.03
2023-02-15T03:43:12.269Z,57.53
2023-02-15T03:45:46.060Z,48.63
2023-02-15T03:48:16.404Z,53.80
2023-02-15T03:51:04.280Z,52.77
2023-02-15T03:53:34.302Z,51.13
2023-02-15T03:56:04.530Z,52.87
2023-02-15T03:58:52.188Z,56.17
2023-02-15T04:01:48.440Z,51.57
2023-02-15T04:04:21.392Z,53.10
2023-02-15T04:06:51.569Z,54.93
2023-02-15T04:09:38.782Z,53.63
2023-02-15T04:12:08.704Z,55.70
2023-02-15T04:14:56.442Z,54.93
2023-02-15T04:17:26.199Z,53.90
2023-02-15T04:20:13.749Z,56.53
2023-02-15T04:23:01.322Z,62.97
2023-02-15T04:25:31.092Z,57.67
2023-02-15T04:28:01.270Z,58.83
2023-02-15T04:30:31.190Z,54.90
2023-02-15T04:33:01.426Z,63.23
2023-02-15T04:35:32.608Z,58.43
2023-02-15T04:38:02.644Z,58.92
2023-02-15T04:40:32.312Z,58.33
2023-02-15T04:43:02.389Z,50.60
2023-02-15T04:45:32.341Z,61.10
2023-02-15T04:48:02.430Z,54.63
2023-02-15T04:50:32.214Z,57.03
2023-02-15T04:53:02.318Z,54.40
2023-02-15T04:55:31.908Z,59.25
2023-02-15T04:58:01.988Z,60.73
2023-02-15T05:00:31.894Z,54.90
2023-02-15T05:03:01.972Z,53.87
2023-02-15T05:05:31.789Z,55.13
2023-02-15T05:08:01.956Z,56.80
2023-02-15T05:10:31.806Z,55.77
2023-02-15T05:13:01.900Z,58.75
2023-02-15T05:15:31.976Z,55.10
2023-02-15T05:18:02.443Z,57.90
2023-02-15T05:20:32.208Z,53.80
2023-02-15T05:23:02.064Z,60.37
2023-02-15T05:25:49.677Z,61.23
2023-02-15T05:28:22.247Z,61.50
2023-02-15T05:30:54.681Z,63.03
2023-02-15T05:33:24.552Z,59.33
2023-02-15T05:35:54.664Z,62.05
2023-02-15T05:38:24.289Z,65.13
2023-02-15T05:40:54.921Z,69.27
2023-02-15T05:43:25.350Z,66.30
2023-02-15T05:45:56.469Z,56.27
2023-02-15T05:48:28.403Z,62.43
2023-02-15T05:51:06.984Z,59.13
2023-02-15T05:53:39.314Z,69.53
2023-02-15T05:56:12.946Z,63.95
2023-02-15T05:58:43.673Z,64.87
2023-02-15T06:01:16.518Z,64.97
2023-02-15T06:03:47.300Z,61.57
2023-02-15T06:06:17.951Z,58.73
2023-02-15T06:08:48.085Z,62.35
2023-02-15T06:11:17.907Z,61.23
2023-02-15T06:13:47.671Z,62.70
2023-02-15T06:16:18.474Z,60.58
2023-02-15T06:21:28.193Z,61.48
2023-02-15T06:23:58.504Z,54.70
2023-02-15T06:26:28.232Z,70.52
2023-02-15T06:28:58.305Z,65.65
2023-02-15T06:31:28.318Z,60.93
2023-02-15T06:33:59.572Z,59.85
2023-02-15T06:36:32.996Z,64.15
2023-02-15T06:39:04.148Z,65.25
2023-02-15T06:41:33.711Z,63.90
2023-02-15T06:44:03.578Z,58.97
2023-02-15T06:46:36.097Z,69.12
2023-02-15T06:49:04.962Z,64.33
2023-02-15T06:51:35.166Z,72.75
2023-02-15T06:54:05.069Z,64.57
2023-02-15T06:56:34.860Z,60.90
2023-02-15T06:59:04.418Z,71.10
2023-02-15T07:01:34.274Z,73.53
2023-02-15T07:04:04.097Z,73.63
2023-02-15T07:06:36.669Z,70.53
2023-02-15T07:09:06.828Z,73.73
2023-02-15T07:11:54.461Z,70.40
2023-02-15T07:14:24.588Z,70.25
2023-02-15T07:16:54.471Z,75.00
2023-02-15T07:19:24.519Z,79.05
2023-02-15T07:21:54.608Z,76.05
2023-02-15T07:24:24.317Z,75.08
2023-02-15T07:26:54.537Z,80.23
2023-02-15T07:29:24.592Z,78.60
2023-02-15T07:31:54.563Z,73.17
2023-02-15T07:34:24.433Z,73.70
2023-02-15T07:36:54.766Z,74.20
2023-02-15T07:39:24.875Z,79.90
2023-02-15T07:41:54.510Z,72.82
2023-02-15T07:44:24.686Z,82.20
2023-02-15T07:46:56.234Z,78.27
2023-02-15T07:49:27.825Z,74.77
2023-02-15T07:51:57.584Z,77.97
2023-02-15T07:54:27.673Z,67.97
2023-02-15T07:56:57.546Z,73.17
2023-02-15T07:59:28.164Z,77.08
2023-02-15T08:01:58.360Z,75.00
2023-02-15T08:04:28.440Z,72.72
2023-02-15T08:06:58.292Z,75.90
2023-02-15T08:09:28.389Z,82.37
2023-02-15T08:11:58.204Z,75.10
2023-02-15T08:14:29.966Z,80.35
2023-02-15T08:17:03.755Z,75.75
2023-02-15T08:19:35.623Z,73.92
2023-02-15T08:22:07.837Z,77.20
2023-02-15T08:24:40.044Z,79.35
2023-02-15T08:27:12.012Z,76.40
2023-02-15T08:29:43.211Z,70.32
2023-02-15T08:32:14.674Z,77.10
2023-02-15T08:34:44.967Z,71.47
2023-02-15T08:37:15.025Z,76.87
2023-02-15T08:39:46.138Z,76.85
2023-02-15T08:42:16.380Z,73.70
2023-02-15T08:44:47.488Z,78.02
2023-02-15T08:47:17.951Z,76.23
2023-02-15T08:49:48.121Z,75.25
2023-02-15T08:52:17.917Z,81.93
2023-02-15T08:54:48.046Z,76.07
2023-02-15T08:57:17.908Z,84.27
2023-02-15T08:59:48.099Z,78.37
2023-02-15T09:02:18.082Z,72.97
2023-02-15T09:04:47.884Z,72.47
2023-02-15T09:07:19.358Z,67.60
2023-02-15T09:09:49.246Z,71.80
2023-02-15T09:12:18.817Z,68.43
2023-02-15T09:14:48.749Z,65.03
2023-02-15T09:17:18.511Z,64.80
2023-02-15T09:19:49.965Z,73.20
2023-02-15T09:22:19.809Z,64.97
2023-02-15T09:24:49.662Z,63.43
2023-02-15T09:27:19.513Z,58.27
2023-02-15T09:29:49.867Z,65.97
2023-02-15T09:32:19.732Z,66.47
2023-02-15T09:34:49.785Z,67.53
2023-02-15T09:37:19.561Z,59.13
2023-02-15T09:39:49.382Z,57.27
2023-02-15T09:42:24.751Z,60.45
2023-02-15T09:45:09.615Z,58.78
2023-02-15T09:48:02.981Z,59.70
2023-02-15T09:50:36.766Z,52.93
2023-02-15T09:53:36.652Z,62.90
2023-02-15T09:56:37.980Z,51.30
2023-02-15T09:59:16.518Z,57.07
2023-02-15T10:02:20.527Z,55.90
2023-02-15T10:05:08.461Z,56.27
2023-02-15T10:07:56.206Z,55.83
2023-02-15T10:10:31.917Z,54.70
2023-02-15T10:13:20.624Z,51.90
2023-02-15T10:15:59.091Z,59.83
2023-02-15T10:19:06.354Z,50.80
2023-02-15T10:21:59.791Z,50.80
2023-02-15T10:24:48.906Z,48.43
2023-02-15T10:27:22.024Z,52.17
2023-02-15T10:30:10.059Z,45.10
2023-02-15T10:33:02.277Z,47.33
2023-02-15T10:35:52.930Z,55.87
2023-02-15T10:41:21.294Z,49.18
2023-02-15T10:44:12.148Z,53.03
2023-02-15T10:47:11.447Z,55.20
2023-02-15T10:50:01.418Z,47.07
2023-02-15T10:52:53.072Z,48.53
2023-02-15T10:55:31.218Z,44.93
2023-02-15T10:58:21.638Z,44.73
2023-02-15T11:00:55.834Z,43.20
2023-02-15T11:03:55.582Z,52.00
2023-02-15T11:06:27.056Z,46.42
2023-02-15T11:09:09.847Z,44.47
2023-02-15T11:11:43.379Z,44.88
2023-02-15T11:14:21.705Z,44.63
2023-02-15T11:16:57.290Z,49.10
2023-02-15T11:19:32.439Z,45.43
2023-02-15T11:22:05.276Z,44.37
2023-02-15T11:24:38.009Z,47.15
2023-02-15T11:27:16.331Z,40.70
2023-02-15T11:30:08.996Z,48.75
2023-02-15T11:32:43.973Z,47.33
2023-02-15T11:35:16.758Z,42.17
2023-02-15T11:37:55.075Z,43.50
2023-02-15T11:40:33.565Z,44.05
2023-02-15T11:43:09.006Z,41.30
2023-02-15T11:45:39.510Z,47.87
2023-02-15T11:48:14.851Z,42.93
2023-02-15T11:50:46.035Z,47.03
2023-02-15T11:53:28.659Z,43.73
2023-02-15T11:55:58.665Z,40.83
2023-02-15T11:58:34.987Z,43.23
2023-02-15T12:01:24.515Z,45.60
2023-02-15T12:04:03.381Z,46.47
2023-02-15T12:06:36.223Z,46.30
2023-02-15T12:09:09.104Z,44.00
2023-02-15T12:11:41.603Z,44.18
2023-02-15T12:14:15.833Z,39.30
2023-02-15T12:16:51.241Z,44.73
2023-02-15T12:19:38.464Z,43.73
2023-02-15T12:22:29.703Z,44.07
2023-02-15T12:25:03.110Z,40.92
2023-02-15T12:27:37.918Z,43.67
2023-02-15T12:30:11.795Z,45.54
2023-02-15T12:32:56.346Z,44.50
2023-02-15T12:35:34.938Z,47.77
2023-02-15T12:38:08.404Z,42.00
2023-02-15T12:40:41.007Z,40.70
2023-02-15T12:43:22.149Z,46.45
2023-02-15T12:45:51.828Z,43.05
2023-02-15T12:48:22.459Z,49.67
2023-02-15T12:50:55.297Z,41.80
2023-02-15T12:56:12.669Z,45.88
2023-02-15T12:58:43.650Z,38.50
2023-02-15T13:01:22.412Z,45.63
2023-02-15T13:04:06.735Z,43.37
2023-02-15T13:06:38.770Z,42.30
2023-02-15T13:09:20.210Z,48.97
2023-02-15T13:11:50.169Z,43.13
2023-02-15T13:14:29.543Z,43.58
2023-02-15T13:17:02.337Z,45.53
2023-02-15T13:19:35.882Z,40.37
2023-02-15T13:22:12.756Z,42.73
2023-02-15T13:24:45.218Z,44.47
2023-02-15T13:27:21.057Z,46.20
2023-02-15T13:29:59.531Z,42.03
2023-02-15T13:32:36.578Z,44.58
2023-02-15T13:35:10.351Z,41.70
2023-02-15T13:38:01.009Z,45.90
2023-02-15T13:40:36.577Z,43.58
2023-02-15T13:43:25.956Z,41.73
2023-02-15T13:46:07.910Z,41.70
2023-02-15T13:48:55.454Z,45.53
2023-02-15T13:51:34.145Z,44.13
2023-02-15T13:54:29.766Z,40.70
2023-02-15T13:57:02.873Z,41.10
2023-02-15T13:59:39.671Z,46.50
2023-02-15T14:02:46.250Z,42.70
2023-02-15T14:05:18.870Z,42.88
2023-02-15T14:08:11.086Z,42.93
2023-02-15T14:10:43.975Z,40.60
2023-02-15T14:13:22.560Z,44.53
2023-02-15T14:16:07.399Z,40.28
2023-02-15T14:18:54.909Z,46.60
2023-02-15T14:21:30.288Z,45.93
2023-02-15T14:24:05.595Z,46.13
2023-02-15T14:26:49.790Z,52.93
2023-02-15T14:29:46.744Z,43.67
2023-02-15T14:32:37.378Z,46.70
2023-02-15T14:35:17.287Z,42.90
2023-02-15T14:38:22.915Z,44.40
2023-02-15T14:41:05.354Z,47.43
2023-02-15T14:43:57.767Z,52.60
2023-02-15T14:46:38.926Z,41.45
2023-02-15T14:49:30.867Z,45.77
2023-02-15T14:52:07.469Z,43.77
2023-02-15T14:54:40.293Z,44.08
2023-02-15T14:57:12.929Z,45.00
2023-02-15T14:59:59.892Z,46.13
2023-02-15T15:02:44.782Z,44.00
2023-02-15T15:05:23.587Z,48.77
2023-02-15T15:07:58.959Z,49.17
2023-02-15T15:10:43.382Z,45.08
2023-02-15T15:13:37.053Z,40.40
2023-02-15T15:16:34.206Z,45.13
2023-02-15T15:19:07.185Z,45.52
2023-02-15T15:21:57.739Z,42.73
2023-02-15T15:24:42.209Z,45.80
2023-02-15T15:27:47.008Z,49.93
2023-02-15T15:30:24.663Z,47.65
2023-02-15T15:33:00.333Z,45.87
2023-02-15T15:35:47.422Z,48.77
2023-02-15T15:41:25.815Z,48.92
2023-02-15T15:44:10.466Z,44.80
2023-02-15T15:47:03.029Z,45.63
2023-02-15T15:49:35.800Z,47.17
2023-02-15T15:52:21.748Z,49.20
2023-02-15T15:54:54.403Z,45.40
2023-02-15T15:57:32.912Z,48.13
2023-02-15T16:00:04.496Z,47.63
2023-02-15T16:02:36.151Z,50.07
2023-02-15T16:05:11.825Z,50.50
2023-02-15T16:07:43.566Z,53.63
2023-02-15T16:10:26.170Z,51.65
2023-02-15T16:12:57.422Z,49.13
2023-02-15T16:15:31.306Z,47.60
2023-02-15T16:18:02.212Z,48.50
2023-02-15T16:20:37.777Z,51.13
2023-02-15T16:23:21.933Z,53.87
2023-02-15T16:26:20.002Z,49.20
2023-02-15T16:28:53.809Z,49.37
2023-02-15T16:31:27.738Z,52.77
2023-02-15T16:33:57.866Z,45.17
2023-02-15T16:36:31.775Z,50.73
2023-02-15T16:39:10.482Z,51.27
2023-02-15T16:41:40.734Z,47.10
2023-02-15T16:44:22.483Z,47.44
2023-02-15T16:46:55.286Z,46.40
2023-02-15T16:49:28.249Z,49.00
2023-02-15T16:52:00.948Z,49.90
2023-02-15T16:54:32.926Z,46.83
2023-02-15T16:57:03.415Z,50.57
2023-02-15T16:59:36.646Z,43.85
2023-02-15T17:02:09.835Z,45.13
2023-02-15T17:04:40.214Z,45.83
2023-02-15T17:07:22.622Z,46.93
2023-02-15T17:10:00.016Z,45.73
2023-02-15T17:12:50.998Z,47.62
2023-02-15T17:15:35.161Z,50.50
2023-02-15T17:18:14.933Z,44.43
2023-02-15T17:20:45.887Z,46.17
2023-02-15T17:23:36.594Z,50.27
2023-02-15T17:26:26.665Z,45.30
2023-02-15T17:29:01.932Z,50.50
2023-02-15T17:31:34.891Z,47.60
2023-02-15T17:34:06.920Z,52.73
2023-02-15T17:36:36.927Z,45.83
2023-02-15T17:39:12.243Z,47.83
2023-02-15T17:41:44.820Z,55.27
2023-02-15T17:44:16.392Z,51.38
2023-02-15T17:46:46.265Z,57.70
2023-02-15T17:49:29.245Z,55.47
2023-02-15T17:51:59.911Z,55.83
2023-02-15T17:54:50.316Z,54.43
2023-02-15T17:57:20.216Z,57.13
2023-02-15T18:00:08.255Z,56.85
2023-02-15T18:03:01.944Z,53.37
2023-02-15T18:05:49.351Z,57.47
2023-02-15T18:08:39.881Z,55.00
2023-02-15T18:11:28.835Z,47.87
2023-02-15T18:14:00.143Z,59.60
2023-02-15T18:16:33.472Z,59.20
2023-02-15T18:19:04.917Z,52.70
2023-02-15T18:21:35.177Z,51.87
2023-02-15T18:24:06.496Z,52.27
2023-02-15T18:26:36.333Z,50.20
2023-02-15T18:29:06.206Z,61.73
2023-02-15T18:31:36.714Z,54.23
2023-02-15T18:34:09.994Z,54.60
2023-02-15T18:36:45.655Z,55.77
2023-02-15T18:39:30.401Z,56.35
2023-02-15T18:42:00.236Z,51.37
2023-02-15T18:44:30.154Z,57.63
2023-02-15T18:46:59.932Z,52.53
2023-02-15T18:49:29.701Z,49.53
2023-02-15T18:51:59.695Z,53.73
2023-02-15T18:54:29.737Z,53.17
2023-02-15T18:57:04.615Z,62.00
2023-02-15T18:59:34.715Z,64.30
2023-02-15T19:02:14.510Z,60.10
2023-02-15T19:04:45.315Z,57.10
2023-02-15T19:07:21.102Z,55.60
2023-02-15T19:09:54.433Z,55.10
2023-02-15T19:12:24.661Z,54.75
2023-02-15T19:14:56.599Z,55.70
2023-02-15T19:17:26.763Z,54.97
2023-02-15T19:19:56.724Z,53.13
2023-02-15T19:22:31.543Z,51.40
2023-02-15T19:25:04.035Z,57.33
2023-02-15T19:27:36.365Z,62.50
2023-02-15T19:30:23.144Z,62.05
2023-02-15T19:32:53.479Z,54.47
2023-02-15T19:35:26.452Z,59.60
2023-02-15T19:37:59.133Z,63.03
2023-02-15T19:40:31.628Z,53.63
2023-02-15T19:43:01.654Z,54.17
2023-02-15T19:45:33.362Z,59.95
2023-02-15T19:48:03.797Z,58.77
2023-02-15T19:50:35.270Z,60.90
2023-02-15T19:53:05.258Z,56.30
2023-02-15T19:55:37.892Z,51.83
2023-02-15T19:58:14.841Z,52.72
2023-02-15T20:00:44.273Z,56.47
2023-02-15T20:03:15.580Z,62.60
2023-02-15T20:05:46.856Z,56.87
2023-02-15T20:08:22.928Z,58.78
2023-02-15T20:10:52.466Z,60.93
2023-02-15T20:13:22.712Z,62.43
2023-02-15T20:15:53.070Z,57.83
2023-02-15T20:18:23.200Z,63.68
2023-02-15T20:20:55.937Z,60.70
2023-02-15T20:23:31.938Z,54.80
2023-02-15T20:26:04.032Z,70.12
2023-02-15T20:28:33.801Z,61.83
2023-02-15T20:31:04.102Z,65.43
2023-02-15T20:33:34.288Z,57.90
2023-02-15T20:36:06.708Z,70.25
2023-02-15T20:38:36.343Z,66.60
2023-02-15T20:41:24.158Z,70.20
2023-02-15T20:43:54.016Z,61.80
2023-02-15T20:46:23.565Z,59.15
2023-02-15T20:48:53.518Z,63.77
2023-02-15T20:51:23.712Z,61.10
2023-02-15T20:53:53.627Z,58.80
2023-02-15T20:56:25.604Z,58.42
2023-02-15T20:58:55.699Z,68.50
2023-02-15T21:01:25.669Z,66.10
2023-02-15T21:03:55.702Z,61.50
2023-02-15T21:06:25.568Z,64.77
2023-02-15T21:08:55.805Z,68.75
2023-02-15T21:11:25.822Z,70.83
2023-02-15T21:13:56.117Z,65.92
2023-02-15T21:16:26.069Z,65.20
2023-02-15T21:18:55.937Z,63.90
2023-02-15T21:21:26.271Z,61.70
2023-02-15T21:23:56.190Z,64.10
2023-02-15T21:26:25.696Z,76.90
2023-02-15T21:28:56.953Z,63.80
2023-02-15T21:31:28.599Z,66.13
2023-02-15T21:33:58.580Z,64.77
2023-02-15T21:36:28.802Z,66.60
2023-02-15T21:38:58.600Z,59.67
2023-02-15T21:41:46.911Z,66.47
2023-02-15T21:44:40.469Z,68.12
2023-02-15T21:47:39.630Z,63.47
2023-02-15T21:50:34.373Z,64.92
2023-02-15T21:53:05.785Z,76.53
2023-02-15T21:55:35.647Z,67.40
2023-02-15T21:58:08.097Z,67.38
2023-02-15T22:00:38.081Z,67.07
2023-02-15T22:03:07.980Z,73.40
2023-02-15T22:05:38.639Z,71.33
2023-02-15T22:08:14.797Z,73.92
2023-02-15T22:10:46.030Z,74.60
2023-02-15T22:13:19.987Z,71.02
2023-02-15T22:15:49.814Z,70.50
2023-02-15T22:18:28.126Z,69.60
2023-02-15T22:20:59.832Z,68.00
2023-02-15T22:23:29.777Z,73.00
2023-02-15T22:26:02.172Z,69.97
2023-02-15T22:28:39.973Z,70.63
2023-02-15T22:33:46.248Z,70.05
2023-02-15T22:36:27.833Z,67.50
2023-02-15T22:38:58.322Z,69.80
2023-02-15T22:41:30.696Z,73.10
2023-02-15T22:44:00.583Z,70.37
2023-02-15T22:46:30.268Z,65.85
2023-02-15T22:49:00.407Z,71.67
2023-02-15T22:51:31.248Z,71.17
2023-02-15T22:54:01.171Z,70.07
2023-02-15T22:56:39.610Z,71.20
2023-02-15T22:59:24.513Z,68.07
2023-02-15T23:01:54.281Z,73.67
2023-02-15T23:04:29.974Z,71.05
2023-02-15T23:07:00.872Z,74.90
2023-02-15T23:09:30.695Z,65.80
2023-02-15T23:12:00.585Z,71.23
2023-02-15T23:14:35.672Z,66.95
2023-02-15T23:17:05.774Z,67.80
2023-02-15T23:19:35.829Z,72.17
2023-02-15T23:22:20.393Z,68.22
2023-02-15T23:24:53.474Z,68.57
2023-02-15T23:27:41.056Z,67.20
2023-02-15T23:30:16.302Z,72.17
2023-02-15T23:32:46.234Z,75.17
2023-02-15T23:35:17.890Z,76.00
2023-02-15T23:37:48.217Z,71.12
2023-02-15T23:40:38.560Z,67.50
2023-02-15T23:43:10.403Z,74.73
2023-02-15T23:45:40.940Z,76.97
2023-02-15T23:48:32.809Z,67.44
2023-02-15T23:51:03.847Z,72.10
2023-02-15T23:53:34.455Z,74.00
2023-02-15T23:56:07.756Z,69.00
2023-02-15T23:58:40.909Z,71.83
